Time;durP1;ratioP1;P1;durP2;ratioP2;P2;SDS_P1;SDS_P2;PMS_P1;PMS_P2;Temp;Humidity;BMP_temperature;BMP_pressure;BME280_temperature;BME280_humidity;BME280_pressure;Samples;Min_cycle;Max_cycle;Signal;HPM_P1;HPM_P2
2022/01/21 00:01:38;;;;;;;29.75;7.00;;;;;;;-1.28;100.00;103247.06;5071200;28;20027;-71
2022/01/21 00:04:04;;;;;;;31.65;6.97;;;;;;;-1.19;100.00;103234.03;5075308;28;20017;-71
2022/01/21 00:06:30;;;;;;;30.80;7.70;;;;;;;-1.17;100.00;103241.19;5075289;28;20349;-70
2022/01/21 00:08:55;;;;;;;32.50;7.47;;;;;;;-1.12;100.00;103229.53;5075000;28;20028;-70
2022/01/21 00:11:23;;;;;;;32.58;7.57;;;;;;;-1.16;100.00;103248.22;5075478;28;20187;-70
2022/01/21 00:13:49;;;;;;;33.50;7.40;;;;;;;-1.27;100.00;103238.53;5073834;28;20392;-70
2022/01/21 00:16:16;;;;;;;29.30;7.85;;;;;;;-1.36;100.00;103243.78;5074976;28;20035;-69
2022/01/21 00:18:51;;;;;;;32.78;8.23;;;;;;;-1.41;100.00;103250.28;5075341;28;20107;-70
2022/01/21 00:32:12;;;;;;;32.67;8.52;;;;;;;-1.47;100.00;103248.03;5071202;28;20070;-70
2022/01/21 00:34:37;;;;;;;30.23;7.60;;;;;;;-1.47;100.00;103244.50;5074618;28;20029;-70
2022/01/21 00:37:03;;;;;;;30.00;7.32;;;;;;;-1.47;100.00;103245.44;5074725;28;20021;-70
2022/01/21 00:39:31;;;;;;;31.40;7.80;;;;;;;-1.54;100.00;103232.66;5073169;28;20031;-70
2022/01/21 00:42:30;;;;;;;29.35;7.82;;;;;;;-1.55;100.00;103229.94;5074735;28;20365;-70
2022/01/21 00:44:59;;;;;;;29.25;7.93;;;;;;;-1.53;100.00;103225.78;5073135;28;20391;-70
2022/01/21 00:47:28;;;;;;;32.05;7.57;;;;;;;-1.58;100.00;103231.44;5074360;28;20055;-70
2022/01/21 00:49:54;;;;;;;30.45;7.97;;;;;;;-1.47;100.00;103236.72;5074573;28;20032;-70
2022/01/21 00:52:20;;;;;;;30.23;7.70;;;;;;;-1.48;100.00;103235.81;5074219;28;20059;-70
2022/01/21 00:54:45;;;;;;;31.58;7.75;;;;;;;-1.53;100.00;103246.53;5074134;28;20056;-71
2022/01/21 00:57:10;;;;;;;33.50;8.13;;;;;;;-1.53;100.00;103244.88;5074233;28;20047;-71
2022/01/21 00:59:36;;;;;;;31.77;7.90;;;;;;;-1.57;100.00;103242.75;5074211;28;20444;-71
2022/01/21 01:02:02;;;;;;;30.10;7.45;;;;;;;-1.62;100.00;103239.72;5074277;28;20447;-71
2022/01/21 01:04:28;;;;;;;31.58;7.30;;;;;;;-1.55;100.00;103256.78;5074246;28;20376;-71
2022/01/21 01:06:53;;;;;;;30.13;7.25;;;;;;;-1.65;100.00;103259.28;5073739;28;20032;-71
2022/01/21 01:09:19;;;;;;;32.08;7.03;;;;;;;-1.62;100.00;103257.88;5074077;28;20056;-71
2022/01/21 01:22:22;;;;;;;32.50;7.90;;;;;;;-1.82;100.00;103240.50;5071069;28;20035;-71
2022/01/21 01:30:00;;;;;;;28.85;7.05;;;;;;;-1.82;100.00;103234.38;5073732;28;20042;-71
2022/01/21 01:32:28;;;;;;;31.38;7.75;;;;;;;-1.87;100.00;103240.84;5073393;28;20025;-71
2022/01/21 01:34:54;;;;;;;32.45;7.35;;;;;;;-1.86;100.00;103230.59;5073418;28;20036;-71
2022/01/21 01:40:14;;;;;;;30.95;6.72;;;;;;;-1.86;100.00;103238.38;5073681;28;20036;-70
2022/01/21 01:50:46;;;;;;;28.73;6.82;;;;;;;-1.97;100.00;103236.47;5047998;28;20028;-70
2022/01/21 01:53:12;;;;;;;29.90;6.63;;;;;;;-1.88;100.00;103234.72;5051364;28;20064;-70
2022/01/21 01:55:37;;;;;;;30.95;6.97;;;;;;;-1.86;100.00;103233.19;5050845;28;20142;-71
2022/01/21 01:58:03;;;;;;;28.05;6.13;;;;;;;-1.82;100.00;103240.50;5050815;28;20033;-71
2022/01/21 02:00:29;;;;;;;28.98;6.50;;;;;;;-1.76;100.00;103234.97;5051078;28;20036;-71
2022/01/21 02:02:54;;;;;;;28.27;6.13;;;;;;;-1.74;100.00;103229.91;5050775;28;20469;-70
2022/01/21 02:05:20;;;;;;;28.33;6.38;;;;;;;-1.71;100.00;103222.41;5050771;28;20028;-70
2022/01/21 02:07:45;;;;;;;27.75;6.38;;;;;;;-1.72;100.00;103220.59;5050900;28;20168;-71
2022/01/21 02:10:11;;;;;;;25.95;5.90;;;;;;;-1.74;100.00;103228.22;5050820;28;20399;-70
2022/01/21 02:12:39;;;;;;;27.88;5.78;;;;;;;-1.77;100.00;103231.44;5050968;28;20506;-70
2022/01/21 02:15:05;;;;;;;27.30;5.82;;;;;;;-1.83;100.00;103237.75;5050544;28;20483;-71
2022/01/21 02:23:00;;;;;;;26.15;5.38;;;;;;;-1.70;100.00;103237.19;5029649;28;20103;-71
2022/01/21 02:25:26;;;;;;;30.15;5.45;;;;;;;-1.67;100.00;103232.31;5030588;28;20505;-71
2022/01/21 02:27:56;;;;;;;26.35;5.20;;;;;;;-1.67;100.00;103232.31;5004860;28;20077;-71
2022/01/21 02:30:23;;;;;;;27.30;5.13;;;;;;;-1.71;100.00;103222.41;4991136;28;20067;-71
2022/01/21 02:32:51;;;;;;;30.33;5.80;;;;;;;-1.70;100.00;103224.22;4991186;28;20041;-70
2022/01/21 02:35:18;;;;;;;27.00;5.47;;;;;;;-1.72;100.00;103228.38;4991297;28;20121;-70
2022/01/21 02:37:44;;;;;;;28.08;5.20;;;;;;;-1.81;100.00;103223.25;4991268;28;20034;-70
2022/01/21 02:40:11;;;;;;;31.30;4.97;;;;;;;-1.76;100.00;103216.81;4990975;28;20420;-71
2022/01/21 02:42:37;;;;;;;28.55;5.22;;;;;;;-1.79;100.00;103226.88;4991252;28;20031;-72
2022/01/21 02:45:05;;;;;;;28.42;5.25;;;;;;;-1.76;100.00;103222.91;4991159;28;20038;-70
2022/01/21 02:47:30;;;;;;;29.83;5.03;;;;;;;-1.71;100.00;103228.50;4990941;28;20042;-68
2022/01/21 02:49:56;;;;;;;25.67;4.90;;;;;;;-1.75;100.00;103231.56;4991279;28;20033;-71
2022/01/21 02:52:25;;;;;;;26.27;4.70;;;;;;;-1.73;100.00;103234.31;4991081;28;20033;-70
2022/01/21 02:54:50;;;;;;;27.38;5.50;;;;;;;-1.71;100.00;103232.78;5049646;28;20041;-71
2022/01/21 02:57:15;;;;;;;28.17;5.00;;;;;;;-1.79;100.00;103242.44;5052652;28;20036;-70
2022/01/21 02:59:41;;;;;;;26.48;5.13;;;;;;;-1.74;100.00;103237.69;5052355;28;20028;-70
2022/01/21 03:02:06;;;;;;;28.88;5.60;;;;;;;-1.76;100.00;103235.88;5052455;28;20150;-70
2022/01/21 03:05:00;;;;;;;26.77;5.07;;;;;;;-1.76;100.00;103241.06;5052248;28;20048;-70
2022/01/21 03:07:25;;;;;;;25.58;5.00;;;;;;;-1.74;100.00;103241.19;5050550;28;20025;-70
2022/01/21 03:09:51;;;;;;;28.27;5.45;;;;;;;-1.77;100.00;103239.22;5052220;28;20036;-70
2022/01/21 03:12:16;;;;;;;32.28;5.93;;;;;;;-1.76;100.00;103241.06;5052451;28;20028;-71
2022/01/21 03:14:41;;;;;;;29.23;5.45;;;;;;;-1.75;100.00;103239.34;5059787;28;20101;-70
2022/01/21 03:17:07;;;;;;;26.90;4.93;;;;;;;-1.74;100.00;103233.41;5072242;28;20638;-70
2022/01/21 03:19:32;;;;;;;25.92;5.45;;;;;;;-1.76;100.00;103235.88;5072374;28;20025;-70
2022/01/21 03:21:57;;;;;;;30.02;6.05;;;;;;;-1.73;100.00;103236.91;5072008;28;20032;-70
2022/01/21 03:24:23;;;;;;;27.58;5.80;;;;;;;-1.77;100.00;103239.22;5072285;28;20030;-70
2022/01/21 03:26:48;;;;;;;30.98;5.78;;;;;;;-1.76;100.00;103243.66;5072130;28;20043;-70
2022/01/21 03:29:13;;;;;;;31.40;5.35;;;;;;;-1.71;100.00;103243.16;5072051;28;20104;-70
2022/01/21 03:31:39;;;;;;;28.83;5.47;;;;;;;-1.66;100.00;103247.06;5067968;28;20021;-72
2022/01/21 03:34:04;;;;;;;25.45;5.40;;;;;;;-1.67;100.00;103261.75;5072209;28;20074;-72
2022/01/21 03:36:30;;;;;;;26.27;5.40;;;;;;;-1.62;100.00;103264.75;5072225;28;20028;-71
2022/01/21 03:38:55;;;;;;;29.08;5.40;;;;;;;-1.59;100.00;103260.78;5073359;28;20086;-71
2022/01/21 03:41:21;;;;;;;28.02;5.28;;;;;;;-1.56;100.00;103261.81;5075931;28;20024;-71
2022/01/21 03:43:47;;;;;;;26.73;5.47;;;;;;;-1.56;100.00;103261.81;5075719;28;20060;-72
2022/01/21 03:46:13;;;;;;;27.13;5.30;;;;;;;-1.57;100.00;103253.13;5075429;28;20119;-71
2022/01/21 03:48:39;;;;;;;28.95;5.40;;;;;;;-1.61;100.00;103257.13;5070196;28;20041;-72
2022/01/21 03:51:04;;;;;;;27.63;5.40;;;;;;;-1.61;100.00;103256.22;5075430;28;20031;-72
2022/01/21 03:53:30;;;;;;;27.20;5.15;;;;;;;-1.61;100.00;103251.94;5075284;28;20434;-72
2022/01/21 03:55:55;;;;;;;27.40;5.10;;;;;;;-1.59;100.00;103257.25;5075684;28;20040;-72
2022/01/21 03:58:21;;;;;;;25.98;5.13;;;;;;;-1.58;100.00;103262.59;5075369;28;20029;-72
2022/01/21 04:00:49;;;;;;;26.20;5.07;;;;;;;-1.64;100.00;103255.94;5075635;28;20105;-72
2022/01/21 04:03:15;;;;;;;28.95;5.32;;;;;;;-1.64;100.00;103255.94;5075281;28;20091;-72
2022/01/21 04:05:41;;;;;;;26.77;5.15;;;;;;;-1.65;100.00;103261.88;5075074;28;20108;-72
2022/01/21 04:08:07;;;;;;;29.52;5.18;;;;;;;-1.63;100.00;103257.72;5075291;28;20386;-72
2022/01/21 04:10:35;;;;;;;32.83;5.70;;;;;;;-1.68;100.00;103259.00;5075034;28;20490;-72
2022/01/21 04:13:02;;;;;;;31.42;5.20;;;;;;;-1.56;100.00;103254.94;5074947;28;20029;-72
2022/01/21 04:15:27;;;;;;;27.55;5.10;;;;;;;-1.62;100.00;103247.50;5075038;28;20561;-72
2022/01/21 04:17:53;;;;;;;27.23;5.32;;;;;;;-1.63;100.00;103253.47;5074926;28;20095;-71
2022/01/21 04:20:18;;;;;;;27.70;5.65;;;;;;;-1.65;100.00;103248.91;5075095;28;20024;-70
2022/01/21 04:22:43;;;;;;;29.75;5.65;;;;;;;-1.66;100.00;103252.28;5075107;28;20048;-70
2022/01/21 04:25:09;;;;;;;25.17;5.28;;;;;;;-1.67;100.00;103245.28;5074600;28;20046;-69
2022/01/21 04:27:36;;;;;;;28.65;5.60;;;;;;;-1.76;100.00;103251.44;5074718;28;20056;-70
2022/01/21 04:30:04;;;;;;;28.27;6.03;;;;;;;-1.84;100.00;103256.66;5074911;28;20086;-71
2022/01/21 04:32:30;;;;;;;27.63;5.60;;;;;;;-1.90;100.00;103258.69;5074853;28;20047;-70
2022/01/21 04:34:55;;;;;;;29.33;5.90;;;;;;;-1.88;100.00;103250.28;5074609;28;20408;-70
2022/01/21 04:37:20;;;;;;;29.30;6.13;;;;;;;-1.93;100.00;103251.53;5074691;28;20100;-70
2022/01/21 04:39:55;;;;;;;31.75;6.00;;;;;;;-1.89;100.00;103256.25;5074486;28;20168;-70
2022/01/21 04:47:55;;;;;;;30.27;6.05;;;;;;;-1.80;100.00;103253.59;5030419;28;20053;-71
2022/01/21 04:50:20;;;;;;;27.00;5.80;;;;;;;-1.83;100.00;103256.81;5031327;28;20034;-71
2022/01/21 04:52:45;;;;;;;27.80;5.47;;;;;;;-1.76;100.00;103246.25;5032564;28;20077;-70
2022/01/21 04:55:11;;;;;;;26.45;5.25;;;;;;;-1.70;100.00;103242.38;5032262;28;20026;-70
2022/01/21 04:57:37;;;;;;;26.45;5.50;;;;;;;-1.73;100.00;103245.63;5032222;28;20041;-70
2022/01/21 05:00:06;;;;;;;32.47;5.40;;;;;;;-1.57;100.00;103240.16;5032034;28;20445;-72
2022/01/21 05:02:33;;;;;;;28.30;5.63;;;;;;;-1.62;100.00;103244.00;5031886;28;20040;-72
2022/01/21 05:04:58;;;;;;;28.83;5.57;;;;;;;-1.60;100.00;103243.38;5032130;28;20076;-72
2022/01/21 05:07:26;;;;;;;27.75;5.30;;;;;;;-1.54;100.00;103243.03;5032113;28;20098;-72
2022/01/21 05:09:51;;;;;;;26.48;5.10;;;;;;;-1.61;100.00;103223.38;5031816;28;20033;-71
2022/01/21 05:12:20;;;;;;;25.77;4.82;;;;;;;-1.58;100.00;103226.25;5032101;28;20040;-72
2022/01/21 05:14:52;;;;;;;29.35;5.13;;;;;;;-1.58;100.00;103230.56;5031730;28;20520;-72
2022/01/21 05:17:18;;;;;;;25.92;5.05;;;;;;;-1.52;100.00;103233.69;5031821;28;20029;-72
2022/01/21 05:19:43;;;;;;;25.10;4.72;;;;;;;-1.53;100.00;103237.09;5071250;28;20040;-72
2022/01/21 05:22:09;;;;;;;26.00;4.50;;;;;;;-1.50;100.00;103236.44;5074022;28;20028;-71
2022/01/21 05:24:34;;;;;;;26.55;4.90;;;;;;;-1.50;100.00;103236.44;5073796;28;20070;-72
2022/01/21 05:27:01;;;;;;;27.75;4.78;;;;;;;-1.51;100.00;103245.00;5073378;28;20487;-72
2022/01/21 05:29:32;;;;;;;24.98;4.60;;;;;;;-1.52;100.00;103249.25;5073737;28;20552;-71
2022/01/21 05:31:59;;;;;;;27.42;4.75;;;;;;;-1.50;100.00;103245.16;5073460;28;20495;-71
2022/01/21 05:34:24;;;;;;;29.77;5.30;;;;;;;-1.47;100.00;103244.50;5073226;28;20055;-71
2022/01/21 05:36:50;;;;;;;32.63;5.82;;;;;;;-1.49;100.00;103248.66;5073547;28;20412;-71
2022/01/21 05:39:17;;;;;;;29.00;5.20;;;;;;;-1.47;100.00;103252.28;5073508;28;20016;-72
2022/01/21 05:41:49;;;;;;;26.73;5.60;;;;;;;-1.51;100.00;103257.97;5073308;28;20032;-71
2022/01/21 05:46:23;;;;;;;28.38;5.38;;;;;;;-1.50;100.00;103252.94;5070051;28;20103;-71
2022/01/21 05:47:08;;;;;;;32.30;5.90;;;;;;;-1.51;100.00;103248.50;5072494;28;20078;-71
2022/01/21 05:49:35;;;;;;;28.67;6.03;;;;;;;-1.58;100.00;103248.72;5073343;28;20093;-71
2022/01/21 05:52:17;;;;;;;32.08;6.90;;;;;;;-1.62;100.00;103244.91;5073064;28;20047;-71
2022/01/21 05:54:44;;;;;;;27.30;6.20;;;;;;;-1.67;100.00;103241.00;5069201;28;20016;-71
2022/01/21 05:57:12;;;;;;;27.95;6.72;;;;;;;-1.62;100.00;103250.09;5073185;28;20024;-71
2022/01/21 05:59:38;;;;;;;29.55;7.60;;;;;;;-1.58;100.00;103257.38;5073027;28;20024;-71
2022/01/21 06:02:05;;;;;;;30.27;7.65;;;;;;;-1.60;100.00;103264.13;5072964;28;20028;-71
2022/01/21 06:04:32;;;;;;;30.38;8.73;;;;;;;-1.66;100.00;103260.03;5073133;28;20021;-71
2022/01/21 06:06:58;;;;;;;34.80;8.98;;;;;;;-1.72;100.00;103262.97;5072709;28;20040;-71
2022/01/21 06:09:23;;;;;;;31.55;9.50;;;;;;;-1.84;100.00;103262.75;5072917;28;20021;-71
2022/01/21 06:11:51;;;;;;;33.35;11.05;;;;;;;-1.84;100.00;103262.75;5073023;28;20024;-71
2022/01/21 06:14:16;;;;;;;34.85;11.43;;;;;;;-1.90;100.00;103262.19;5072447;28;20071;-70
2022/01/21 06:16:42;;;;;;;33.63;12.20;;;;;;;-1.93;100.00;103269.69;5072990;28;20059;-71
2022/01/21 06:19:07;;;;;;;32.97;11.95;;;;;;;-2.00;100.00;103265.59;5072893;28;20489;-71
2022/01/21 06:21:32;;;;;;;33.70;12.40;;;;;;;-2.10;100.00;103270.69;5072664;28;20074;-71
2022/01/21 06:23:58;;;;;;;33.60;13.38;;;;;;;-2.16;100.00;103268.41;5072599;28;20078;-71
2022/01/21 06:26:23;;;;;;;37.83;14.18;;;;;;;-2.20;100.00;103276.69;5072845;28;20032;-71
2022/01/21 06:28:49;;;;;;;39.10;15.10;;;;;;;-2.16;100.00;103277.88;5072555;28;20394;-71
2022/01/21 06:31:14;;;;;;;36.45;15.90;;;;;;;-2.14;100.00;103277.28;5072451;28;20016;-71
2022/01/21 06:33:39;;;;;;;40.58;18.05;;;;;;;-2.09;100.00;103289.75;5072772;28;20032;-71
2022/01/21 06:36:05;;;;;;;41.50;18.42;;;;;;;-2.05;100.00;103291.84;5072778;28;20169;-71
2022/01/21 06:38:30;;;;;;;44.72;21.58;;;;;;;-1.96;100.00;103292.75;5072484;28;20536;-71
2022/01/21 06:40:55;;;;;;;48.03;21.23;;;;;;;-1.92;100.00;103302.63;5072707;28;20071;-71
2022/01/21 06:43:21;;;;;;;46.85;23.45;;;;;;;-1.89;100.00;103308.13;5072417;28;20486;-71
2022/01/21 06:45:48;;;;;;;46.20;23.02;;;;;;;-1.87;100.00;103322.13;5070509;28;20028;-71
2022/01/21 06:48:13;;;;;;;45.10;22.77;;;;;;;-1.85;100.00;103323.19;5071885;28;20067;-71
2022/01/21 06:50:41;;;;;;;47.92;25.83;;;;;;;-1.76;100.00;103310.19;5071477;28;20507;-72
2022/01/21 06:53:08;;;;;;;50.38;25.15;;;;;;;-1.68;100.00;103316.06;5076101;28;20041;-71
2022/01/21 06:55:33;;;;;;;50.80;26.85;;;;;;;-1.58;100.00;103309.28;5070813;28;20021;-73
2022/01/21 06:57:59;;;;;;;49.97;27.27;;;;;;;-1.52;100.00;103313.22;5074811;28;20043;-73
2022/01/21 07:00:24;;;;;;;54.83;28.90;;;;;;;-1.44;100.00;103307.97;5072926;28;20032;-72
2022/01/21 07:02:52;;;;;;;49.20;30.15;;;;;;;-1.41;100.00;103312.56;5072623;28;20032;-72
2022/01/21 07:05:19;;;;;;;51.45;29.33;;;;;;;-1.38;100.00;103311.91;5073919;28;21026;-70
2022/01/21 07:07:45;;;;;;;50.63;28.42;;;;;;;-1.36;100.00;103315.56;5072095;28;20032;-71
2022/01/21 07:10:13;;;;;;;48.53;29.95;;;;;;;-1.31;100.00;103328.19;5072814;28;20554;-71
2022/01/21 07:12:40;;;;;;;48.35;29.98;;;;;;;-1.25;100.00;103338.25;5067282;28;20028;-72
2022/01/21 07:15:07;;;;;;;46.50;30.50;;;;;;;-1.18;100.00;103344.88;5072570;28;20040;-72
2022/01/21 07:17:33;;;;;;;51.30;30.58;;;;;;;-1.16;100.00;103332.97;5070720;28;20039;-72
2022/01/21 07:19:58;;;;;;;50.42;31.10;;;;;;;-1.12;100.00;103328.19;5071545;28;20062;-71
2022/01/21 07:22:24;;;;;;;44.58;29.45;;;;;;;-1.06;100.00;103336.53;5077399;28;20032;-72
2022/01/21 07:24:49;;;;;;;47.03;29.45;;;;;;;-1.03;100.00;103338.50;5068306;28;20025;-71
2022/01/21 07:27:15;;;;;;;47.95;30.40;;;;;;;-0.99;100.00;103332.84;5070271;28;20537;-72
2022/01/21 07:29:40;;;;;;;46.33;29.38;;;;;;;-0.97;100.00;103327.78;5076705;28;20029;-71
2022/01/21 07:32:07;;;;;;;43.92;28.23;;;;;;;-0.94;100.00;103344.53;5073636;28;20105;-72
2022/01/21 07:34:32;;;;;;;44.63;28.40;;;;;;;-0.92;100.00;103348.19;5063781;28;20094;-72
2022/01/21 07:36:58;;;;;;;45.35;27.63;;;;;;;-0.90;100.00;103351.84;5072969;28;20455;-71
2022/01/21 07:39:23;;;;;;;44.03;28.02;;;;;;;-0.83;100.00;103361.13;5071778;28;20020;-70
2022/01/21 07:41:49;;;;;;;45.67;27.67;;;;;;;-0.78;100.00;103359.84;5072061;28;20024;-72
2022/01/21 07:44:16;;;;;;;45.70;27.02;;;;;;;-0.73;100.00;103350.78;5069794;28;20383;-72
2022/01/21 07:46:43;;;;;;;40.72;26.50;;;;;;;-0.65;100.00;103350.56;5072702;28;20033;-72
2022/01/21 07:49:08;;;;;;;40.22;25.40;;;;;;;-0.60;100.00;103352.78;5067082;28;21110;-72
2022/01/21 07:51:34;;;;;;;39.83;24.77;;;;;;;-0.57;100.00;103344.34;5069816;28;20025;-72
2022/01/21 07:54:00;;;;;;;36.17;21.85;;;;;;;-0.49;100.00;103356.34;5070827;28;20021;-73
2022/01/21 07:56:25;;;;;;;38.58;22.27;;;;;;;-0.53;100.00;103347.34;5069687;28;20530;-72
2022/01/21 07:58:52;;;;;;;39.35;22.70;;;;;;;-0.53;100.00;103349.03;5074628;28;20029;-72
2022/01/21 08:01:18;;;;;;;36.70;21.83;;;;;;;-0.51;100.00;103349.19;5072940;28;20055;-71
2022/01/21 08:03:44;;;;;;;39.42;21.05;;;;;;;-0.45;100.00;103332.47;5067956;28;20467;-73
2022/01/21 08:06:09;;;;;;;36.10;19.50;;;;;;;-0.45;100.00;103324.66;5078103;28;20028;-74
2022/01/21 08:08:34;;;;;;;35.70;19.50;;;;;;;-0.54;100.00;103329.97;5071695;28;20035;-73
2022/01/21 08:11:00;;;;;;;35.03;19.67;;;;;;;-0.54;100.00;103329.97;5075063;28;20024;-73
2022/01/21 08:13:27;;;;;;;35.10;20.83;;;;;;;-0.51;100.00;103324.13;5070105;28;20021;-72
2022/01/21 08:15:52;;;;;;;35.15;20.77;;;;;;;-0.49;100.00;103317.38;5070533;28;20131;-72
2022/01/21 08:18:18;;;;;;;38.58;20.52;;;;;;;-0.49;100.00;103327.75;5074959;28;20439;-72
2022/01/21 08:20:43;;;;;;;36.33;20.42;;;;;;;-0.45;100.00;103322.06;5074936;28;20029;-72
2022/01/21 08:23:11;;;;;;;36.08;20.60;;;;;;;-0.38;100.00;103319.22;5076492;28;20055;-72
2022/01/21 08:25:36;;;;;;;36.33;19.88;;;;;;;-0.38;100.00;103323.50;5072358;28;20067;-72
2022/01/21 08:28:02;;;;;;;34.97;17.92;;;;;;;-0.39;100.00;103313.91;5079001;28;20120;-72
2022/01/21 08:30:27;;;;;;;33.72;17.05;;;;;;;-0.33;100.00;103316.13;5075112;28;20045;-72
2022/01/21 08:32:52;;;;;;;33.63;17.33;;;;;;;-0.32;100.00;103308.47;5076715;28;20067;-72
2022/01/21 08:35:18;;;;;;;32.70;16.67;;;;;;;-0.30;100.00;103314.69;5073865;28;20028;-72
2022/01/21 08:37:44;;;;;;;34.25;16.35;;;;;;;-0.28;100.00;103322.63;5076186;28;20052;-72
2022/01/21 08:40:09;;;;;;;30.77;16.20;;;;;;;-0.15;100.00;103333.31;5077906;28;20405;-71
2022/01/21 08:42:35;;;;;;;32.40;16.75;;;;;;;-0.14;100.00;103329.97;5078192;28;20040;-71
2022/01/21 08:45:00;;;;;;;30.02;16.67;;;;;;;-0.10;100.00;103336.31;5076617;28;20067;-71
2022/01/21 08:47:26;;;;;;;32.78;18.50;;;;;;;-0.01;100.00;103329.34;5072018;28;20020;-71
2022/01/21 08:49:52;;;;;;;31.48;16.48;;;;;;;0.15;100.00;103323.78;5071600;28;20023;-72
2022/01/21 08:52:19;;;;;;;30.98;16.48;;;;;;;0.25;100.00;103329.00;5074617;28;20069;-72
2022/01/21 08:54:47;;;;;;;31.42;16.83;;;;;;;0.39;100.00;103337.06;5074651;28;20021;-72
2022/01/21 08:57:13;;;;;;;32.90;16.67;;;;;;;0.46;100.00;103342.91;5074171;28;20075;-72
2022/01/21 08:59:38;;;;;;;31.08;15.43;;;;;;;0.52;100.00;103342.53;5074265;28;20024;-72
2022/01/21 09:02:04;;;;;;;29.20;14.65;;;;;;;0.73;100.00;103339.94;5074462;28;20020;-72
2022/01/21 09:04:29;;;;;;;28.60;13.98;;;;;;;1.00;100.00;103342.22;5073872;28;20020;-67
2022/01/21 09:06:54;;;;;;;28.35;13.30;;;;;;;1.22;100.00;103333.59;5074073;28;20474;-68
2022/01/21 09:09:20;;;;;;;27.48;11.30;;;;;;;1.37;100.00;103321.81;5074127;28;20028;-67
2022/01/21 09:11:45;;;;;;;26.33;11.18;;;;;;;1.37;100.00;103311.41;5072525;28;20021;-67
2022/01/21 09:14:11;;;;;;;24.77;11.02;;;;;;;1.31;100.00;103313.53;5073975;28;20119;-67
2022/01/21 09:16:37;;;;;;;24.33;10.77;;;;;;;1.25;100.00;103294.75;5073857;28;20051;-68
2022/01/21 09:19:03;;;;;;;25.92;10.85;;;;;;;1.33;100.00;103301.50;5073684;28;20024;-67
2022/01/21 09:21:31;;;;;;;25.20;11.30;;;;;;;1.54;100.00;103298.81;5073756;28;20023;-67
2022/01/21 09:23:57;;;;;;;27.30;10.88;;;;;;;1.74;100.00;103298.69;5073459;28;20490;-67
2022/01/21 09:26:25;;;;;;;27.75;11.10;;;;;;;2.02;100.00;103303.47;5073474;28;20028;-67
2022/01/21 09:28:51;;;;;;;25.50;9.32;;;;;;;2.37;100.00;103302.72;5073720;28;20029;-67
2022/01/21 09:31:18;;;;;;;26.08;9.30;;;;;;;2.51;100.00;103315.94;5073416;28;20033;-67
2022/01/21 09:33:44;;;;;;;23.35;7.70;;;;;;;2.69;100.00;103314.72;5073347;28;20474;-67
2022/01/21 09:36:11;;;;;;;23.88;7.60;;;;;;;2.71;100.00;103307.91;5073447;28;20119;-67
2022/01/21 09:38:37;;;;;;;26.05;8.48;;;;;;;2.79;100.00;103316.31;5069351;28;20125;-68
2022/01/21 09:41:03;;;;;;;25.98;7.78;;;;;;;2.91;100.00;103326.78;5073564;28;20025;-71
2022/01/21 09:43:28;;;;;;;26.40;7.80;;;;;;;2.98;100.00;103323.84;5073453;28;20029;-72
2022/01/21 09:45:55;;;;;;;23.60;7.70;;;;;;;3.13;100.00;103327.59;5073143;28;20021;-72
2022/01/21 09:48:29;;;;;;;22.10;6.55;;;;;;;3.35;100.00;103331.81;5073098;28;20478;-71
2022/01/21 09:51:00;;;;;;;23.42;6.90;;;;;;;3.38;100.00;103334.66;5073501;28;20028;-70
2022/01/21 09:53:27;;;;;;;24.48;7.18;;;;;;;3.52;100.00;103334.75;5073527;28;20025;-71
2022/01/21 09:55:56;;;;;;;22.33;6.90;;;;;;;3.77;100.00;103345.28;5073125;28;20421;-71
2022/01/21 09:58:21;;;;;;;24.92;6.50;;;;;;;3.86;100.00;103338.09;5073075;28;20083;-71
2022/01/21 10:00:48;;;;;;;24.95;6.32;;;;;;;4.01;100.00;103340.91;5073408;28;20024;-71
2022/01/21 10:03:14;;;;;;;21.85;6.18;;;;;;;4.08;100.00;103345.78;5072869;28;20130;-71
2022/01/21 10:05:43;;;;;;;24.02;6.13;;;;;;;4.24;100.00;103350.38;5072939;28;20363;-71
2022/01/21 10:08:09;;;;;;;20.63;5.25;;;;;;;4.51;100.00;103348.78;5069268;28;20111;-71
2022/01/21 10:10:35;;;;;;;20.92;4.80;;;;;;;4.68;100.00;103354.25;5073100;28;20112;-72
2022/01/21 10:13:03;;;;;;;22.30;5.55;;;;;;;4.81;100.00;103362.16;5072823;28;20375;-71
2022/01/21 10:15:30;;;;;;;23.15;5.20;;;;;;;5.28;100.00;103360.91;5072737;28;20083;-70
2022/01/21 10:18:03;;;;;;;22.55;5.90;;;;;;;5.35;100.00;103376.22;5072956;28;20432;-71
2022/01/21 10:20:28;;;;;;;21.95;6.00;;;;;;;5.33;100.00;103372.63;5067050;28;20032;-71
2022/01/21 10:22:58;;;;;;;22.63;5.97;;;;;;;5.69;100.00;103380.16;5072762;28;20493;-71
2022/01/21 10:25:24;;;;;;;21.52;6.22;;;;;;;5.58;100.00;103375.13;5072298;28;20035;-71
2022/01/21 10:27:49;;;;;;;24.95;6.00;;;;;;;5.20;100.00;103370.88;5072169;28;20506;-71
2022/01/21 10:30:20;;;;;;;22.65;5.60;;;;;;;4.77;100.00;103372.31;5072445;28;20024;-71
2022/01/21 10:32:46;;;;;;;22.38;6.05;;;;;;;4.76;100.00;103378.34;5071269;28;20029;-71
2022/01/21 10:35:22;;;;;;;23.42;6.18;;;;;;;5.19;100.00;103376.03;5072524;28;20031;-71
2022/01/21 10:37:48;;;;;;;23.27;6.18;;;;;;;5.57;100.00;103381.16;5069675;28;20403;-68
2022/01/21 10:40:15;;;;;;;21.98;6.30;;;;;;;6.00;100.00;103375.19;5071484;28;20036;-71
2022/01/21 10:42:41;;;;;;;21.75;5.75;;;;;;;6.14;100.00;103385.66;5068760;28;20356;-71
2022/01/21 10:45:07;;;;;;;22.20;5.60;;;;;;;6.74;100.00;103386.72;5072410;28;20028;-71
2022/01/21 10:47:36;;;;;;;22.10;5.07;;;;;;;7.19;100.00;103390.28;5072911;28;20071;-71
2022/01/21 10:50:20;;;;;;;22.08;5.20;;;;;;;6.94;97.50;103388.81;5076564;28;20059;-71
2022/01/21 10:52:51;;;;;;;23.55;4.55;;;;;;;6.32;97.10;103378.94;5073182;28;20479;-71
2022/01/21 10:55:32;;;;;;;23.00;4.93;;;;;;;6.24;100.00;103381.06;5076494;28;20021;-71
2022/01/21 10:58:18;;;;;;;24.20;5.30;;;;;;;6.08;100.00;103375.69;5076393;28;20052;-71
2022/01/21 11:01:02;;;;;;;23.23;5.40;;;;;;;6.08;100.00;103379.19;5073016;28;20446;-71
2022/01/21 11:03:29;;;;;;;22.95;5.25;;;;;;;5.80;100.00;103376.50;5073418;28;20115;-70
2022/01/21 11:06:14;;;;;;;24.42;5.80;;;;;;;5.17;100.00;103367.13;5076763;28;20025;-70
2022/01/21 11:08:39;;;;;;;24.17;5.95;;;;;;;4.64;100.00;103366.22;5076422;28;20055;-70
2022/01/21 11:11:04;;;;;;;23.00;5.28;;;;;;;4.62;100.00;103349.50;5076177;28;20063;-70
2022/01/21 11:13:32;;;;;;;27.48;6.18;;;;;;;4.51;100.00;103348.78;5076290;28;20025;-71
2022/01/21 11:15:59;;;;;;;26.42;5.55;;;;;;;4.61;100.00;103344.16;5076126;28;20441;-70
2022/01/21 11:18:29;;;;;;;25.50;6.25;;;;;;;4.89;100.00;103337.38;5075993;28;20028;-70
2022/01/21 11:21:03;;;;;;;24.98;6.00;;;;;;;5.49;100.00;103332.56;5075884;28;20016;-70
2022/01/21 11:23:29;;;;;;;26.55;5.95;;;;;;;5.96;100.00;103328.50;5076154;28;20044;-70
2022/01/21 11:25:58;;;;;;;24.83;6.15;;;;;;;6.11;100.00;103328.59;5075809;28;20067;-70
2022/01/21 11:28:49;;;;;;;25.35;6.25;;;;;;;6.22;100.00;103324.03;5075885;28;20047;-70
2022/01/21 11:31:18;;;;;;;26.58;7.30;;;;;;;6.02;100.00;103314.91;5072461;28;20029;-70
2022/01/21 11:33:44;;;;;;;27.17;7.05;;;;;;;5.96;100.00;103314.50;5072089;28;20025;-71
2022/01/21 11:36:10;;;;;;;23.70;6.63;;;;;;;5.94;100.00;103315.28;5075862;28;20036;-70
2022/01/21 11:38:38;;;;;;;26.98;7.25;;;;;;;5.76;100.00;103307.16;5074065;28;20078;-71
2022/01/21 11:41:08;;;;;;;25.83;7.07;;;;;;;5.46;100.00;103311.38;5078986;28;20493;-71
2022/01/21 11:43:35;;;;;;;26.83;7.50;;;;;;;5.26;100.00;103311.75;5071275;28;20028;-71
2022/01/21 11:48:55;;;;;;;26.50;6.80;;;;;;;4.98;100.00;103315.19;5069666;28;20071;-72
2022/01/21 11:51:26;;;;;;;25.45;6.95;;;;;;;5.04;100.00;103315.63;5072194;28;20099;-73
2022/01/21 11:53:58;;;;;;;25.55;6.43;;;;;;;5.09;100.00;103303.69;5072321;28;20464;-72
2022/01/21 11:56:31;;;;;;;26.30;6.80;;;;;;;5.01;100.00;103313.69;5066657;28;20383;-71
2022/01/21 11:59:38;;;;;;;24.77;6.53;;;;;;;4.99;100.00;103311.75;5075068;28;20024;-71
2022/01/21 12:02:15;;;;;;;28.88;7.05;;;;;;;4.95;100.00;103309.75;5069464;28;20033;-72